Detall de PIREP

Printer-friendly versionPDF version

[2013/11/30 16:56:00]
Flight IATA:CT1001
Pilot Number:012
Company ICAO:CAT
Aircraft Type:F70/A
PAX:79
Aircraft Registration:PFJ
Departing Airport: LEMH
Destination Airport: LERS
Alternate Airport:LEPA
Online: VATSIM
Route:LUNIK A25 BCN
Flight Level:F180
No Slew and time accel
No pause
Crash detect
Detect pilot in Cockpit between each 30 and 45 minutes
16:56 Zero fuel Weight: 71818 Lbs, Fuel Weight: 9378 Lbs
16:56 VATSIM:LEMH 301630Z 26008KT 230V290 6000 -RA FEW016 BKN040 07/06 Q1012
16:56 VATSIM:LERS 301630Z 04008KT 9999 FEW020 09/04 Q1012
16:56 VOICE CATALONIAN / IFR CLASSIC
16:56 Parking Brakes off
17:00 Take-off
17:00 Take off Weight: 80928 Lbs
17:00 Wind: 262º @ 008 Knots Heading: 008º
17:00 POS N39º 52´ 12´´ E004º 13´ 12´´
17:00 Gear Up: 146 Knots
17:00 Flaps:2 at 146 Knots
17:00 Flaps:1 at 177 Knots
17:01 Flaps:0 at 199 Knots
17:09 TOC
17:09 Fuel Weight: 7825 Lb
17:15 Wind:306º@013 Knots Heading: 307º Ground Speed: 396 Knots Altitude 17956 ft
17:21 TOD
17:21 Fuel Weight: 6595 Lb
17:30 Wind:000º@040 Knots Heading: 301º Ground Speed: 261 Knots Altitude 7411 ft
17:34 Flaps:1 at 171 Knots
17:34 Flaps:2 at 170 Knots
17:34 Gear Down: 163 Knots
17:34 Flaps:3 at 98 Knots
17:34 Flaps:4 at 99 Knots
17:38 TouchDown:Rate -295 ft/min Speed: 110 Knots
17:38 Flaps:2 at 35 Knots
17:38 VATSIM:LERS 301700Z 03009KT 9999 FEW020 09/04 Q1012
17:38 Land
17:38 Wind:040º@008 Knots
17:38 Heading: 247º
17:38 Flight Duration: 00:38
17:38 Landing Weight: 77449 Lbs
17:38 POS N41º 08´ 44´´ E001º 09´ 39´´
17:39 Parking brakes on
17:39 Block to Block Duration: 00:43
17:39 Final Fuel: 5582 Lbls
17:39 Spent Fuel: 3796 Lbls
17:39 Flight Length: 171 NM
17:39 TOD Land Length: 70 NM

Exportar CSV

Powered by Drupal - Modified by Danger4k